Historical Weather Data

Kanab, UT VWS

Date ET
(Inches)
Rain
(Inches)
Temp °F
Humidity
Avg
Wind MPH
Avg
Solar Wm2
Avg
High Ave Low
06/01/2019 12:00 am 0.247 0.00 80.0 66.6 51.0 40 3.1 379
06/02/2019 12:00 am 0.243 0.00 78.0 64.4 47.0 35 2.8 379
06/03/2019 12:00 am 0.227 0.00 80.0 66.0 49.0 36 2.0 367
06/04/2019 12:00 am 0.251 0.00 83.0 69.5 53.0 36 2.5 376
06/05/2019 12:00 am 0.244 0.00 85.0 71.4 54.0 36 1.9 378
06/06/2019 12:00 am 0.271 0.00 86.0 72.2 54.0 35 3.5 372
06/07/2019 12:00 am 0.284 0.00 83.0 71.1 55.0 30 4.6 376
06/08/2019 12:00 am 0.266 0.00 81.0 69.7 55.0 30 3.5 380
06/09/2019 12:00 am 0.250 0.00 78.0 64.8 50.0 22 3.5 384
06/10/2019 12:00 am 0.256 0.00 87.0 70.5 51.0 17 2.5 388
06/11/2019 12:00 am 0.269 0.00 91.0 73.4 52.0 24 2.6 386
06/12/2019 12:00 am 0.256 0.00 91.0 76.1 57.0 23 2.0 376
06/13/2019 12:00 am 0.278 0.00 93.0 76.0 57.0 23 2.8 380
06/14/2019 12:00 am 0.272 0.00 86.0 73.0 57.0 25 3.1 378
06/15/2019 12:00 am 0.240 0.00 85.0 73.6 59.0 36 2.2 358
06/16/2019 12:00 am 0.226 0.00 85.0 69.5 58.0 36 2.4 326
06/17/2019 12:00 am 0.236 0.00 85.0 69.8 53.0 44 2.6 348
06/18/2019 12:00 am 0.234 0.00 82.0 70.2 56.0 41 2.2 370
06/19/2019 12:00 am 0.277 0.00 89.0 73.4 53.0 30 2.8 368
06/20/2019 12:00 am 0.296 0.00 89.0 75.1 56.0 24 3.7 371
06/21/2019 12:00 am 0.260 0.00 80.0 72.5 63.0 34 3.5 371
06/22/2019 12:00 am 0.238 0.00 75.0 63.9 51.0 29 3.0 391
06/23/2019 12:00 am 0.226 0.00 80.0 64.2 44.0 24 1.6 392
06/24/2019 12:00 am 0.262 0.00 87.0 70.8 50.0 20 2.7 388
06/25/2019 12:00 am 0.279 0.00 88.0 72.7 54.0 16 3.1 388
06/26/2019 12:00 am 0.287 0.00 87.0 72.2 53.0 17 3.6 392
06/27/2019 12:00 am 0.284 0.00 90.0 72.5 52.0 21 3.5 390
06/28/2019 12:00 am 0.312 0.00 93.0 73.8 52.0 19 4.7 383
06/29/2019 12:00 am 0.278 0.00 91.0 75.3 59.0 22 3.6 360
06/30/2019 12:00 am 0.229 0.00 86.3 75.8 65.0 32 2.9 300